sensor_id;sensor_type;location;lat;lon;timestamp;P1;durP1;ratioP1;P2;durP2;ratioP2
65174;SDS011;51761;42.126;24.752;2022-08-30T00:00:52;16.88;;;9.38;;
65174;SDS011;51761;42.126;24.752;2022-08-30T00:03:32;13.70;;;9.38;;
65174;SDS011;51761;42.126;24.752;2022-08-30T00:06:02;15.55;;;10.15;;
65174;SDS011;51761;42.126;24.752;2022-08-30T00:08:33;20.40;;;10.10;;
65174;SDS011;51761;42.126;24.752;2022-08-30T00:10:59;24.02;;;9.55;;
65174;SDS011;51761;42.126;24.752;2022-08-30T00:13:26;13.90;;;9.80;;
65174;SDS011;51761;42.126;24.752;2022-08-30T00:15:51;18.17;;;9.75;;
65174;SDS011;51761;42.126;24.752;2022-08-30T00:18:17;27.25;;;8.73;;
65174;SDS011;51761;42.126;24.752;2022-08-30T00:20:44;14.68;;;9.38;;
65174;SDS011;51761;42.126;24.752;2022-08-30T00:23:10;14.65;;;9.50;;
65174;SDS011;51761;42.126;24.752;2022-08-30T00:25:36;20.85;;;9.98;;
65174;SDS011;51761;42.126;24.752;2022-08-30T00:28:02;18.30;;;9.70;;
65174;SDS011;51761;42.126;24.752;2022-08-30T00:30:28;21.38;;;10.02;;
65174;SDS011;51761;42.126;24.752;2022-08-30T00:32:54;14.05;;;8.63;;
65174;SDS011;51761;42.126;24.752;2022-08-30T00:35:20;21.23;;;10.40;;
65174;SDS011;51761;42.126;24.752;2022-08-30T00:37:46;18.02;;;9.40;;
65174;SDS011;51761;42.126;24.752;2022-08-30T00:40:13;15.68;;;9.45;;
65174;SDS011;51761;42.126;24.752;2022-08-30T00:42:40;13.95;;;9.48;;
65174;SDS011;51761;42.126;24.752;2022-08-30T00:45:15;23.10;;;9.70;;
65174;SDS011;51761;42.126;24.752;2022-08-30T00:47:46;15.77;;;9.55;;
65174;SDS011;51761;42.126;24.752;2022-08-30T00:50:13;14.90;;;8.07;;
65174;SDS011;51761;42.126;24.752;2022-08-30T00:52:40;17.80;;;9.85;;
65174;SDS011;51761;42.126;24.752;2022-08-30T00:55:10;15.93;;;8.60;;
65174;SDS011;51761;42.126;24.752;2022-08-30T00:57:38;18.27;;;9.40;;
65174;SDS011;51761;42.126;24.752;2022-08-30T01:00:07;15.18;;;9.05;;
65174;SDS011;51761;42.126;24.752;2022-08-30T01:02:33;20.17;;;8.95;;
65174;SDS011;51761;42.126;24.752;2022-08-30T01:05:00;21.05;;;10.35;;
65174;SDS011;51761;42.126;24.752;2022-08-30T01:07:28;15.70;;;9.15;;
65174;SDS011;51761;42.126;24.752;2022-08-30T01:09:54;26.10;;;9.40;;
65174;SDS011;51761;42.126;24.752;2022-08-30T01:12:19;14.35;;;9.18;;
65174;SDS011;51761;42.126;24.752;2022-08-30T01:14:45;19.13;;;9.98;;
65174;SDS011;51761;42.126;24.752;2022-08-30T01:17:11;17.48;;;9.57;;
65174;SDS011;51761;42.126;24.752;2022-08-30T01:19:46;19.65;;;10.45;;
65174;SDS011;51761;42.126;24.752;2022-08-30T01:25:02;21.63;;;10.43;;
65174;SDS011;51761;42.126;24.752;2022-08-30T01:27:29;16.00;;;10.02;;
65174;SDS011;51761;42.126;24.752;2022-08-30T01:29:56;15.60;;;10.23;;
65174;SDS011;51761;42.126;24.752;2022-08-30T01:32:25;20.90;;;9.93;;
65174;SDS011;51761;42.126;24.752;2022-08-30T01:34:55;16.98;;;8.57;;
65174;SDS011;51761;42.126;24.752;2022-08-30T01:37:29;16.33;;;9.90;;
65174;SDS011;51761;42.126;24.752;2022-08-30T01:39:57;18.05;;;10.00;;
65174;SDS011;51761;42.126;24.752;2022-08-30T01:42:23;16.50;;;9.30;;
65174;SDS011;51761;42.126;24.752;2022-08-30T01:44:49;18.65;;;8.90;;
65174;SDS011;51761;42.126;24.752;2022-08-30T01:47:15;14.57;;;9.43;;
65174;SDS011;51761;42.126;24.752;2022-08-30T01:49:43;20.15;;;9.52;;
65174;SDS011;51761;42.126;24.752;2022-08-30T01:52:09;18.15;;;9.27;;
65174;SDS011;51761;42.126;24.752;2022-08-30T01:54:36;14.27;;;9.32;;
65174;SDS011;51761;42.126;24.752;2022-08-30T01:57:04;29.33;;;11.00;;
65174;SDS011;51761;42.126;24.752;2022-08-30T01:59:31;14.82;;;9.70;;
65174;SDS011;51761;42.126;24.752;2022-08-30T02:01:57;14.38;;;9.57;;
65174;SDS011;51761;42.126;24.752;2022-08-30T02:04:24;16.25;;;10.43;;
65174;SDS011;51761;42.126;24.752;2022-08-30T02:06:51;19.70;;;9.38;;
65174;SDS011;51761;42.126;24.752;2022-08-30T02:09:17;26.77;;;11.88;;
65174;SDS011;51761;42.126;24.752;2022-08-30T02:11:42;17.08;;;10.48;;
65174;SDS011;51761;42.126;24.752;2022-08-30T02:14:08;17.13;;;9.25;;
65174;SDS011;51761;42.126;24.752;2022-08-30T02:16:34;18.25;;;9.68;;
65174;SDS011;51761;42.126;24.752;2022-08-30T02:18:59;20.52;;;9.88;;
65174;SDS011;51761;42.126;24.752;2022-08-30T02:21:25;17.75;;;9.85;;
65174;SDS011;51761;42.126;24.752;2022-08-30T02:23:54;16.23;;;9.80;;
65174;SDS011;51761;42.126;24.752;2022-08-30T02:26:19;25.92;;;10.68;;
65174;SDS011;51761;42.126;24.752;2022-08-30T02:28:45;12.63;;;9.35;;
65174;SDS011;51761;42.126;24.752;2022-08-30T02:31:12;16.85;;;9.40;;
65174;SDS011;51761;42.126;24.752;2022-08-30T02:33:37;22.38;;;10.23;;
65174;SDS011;51761;42.126;24.752;2022-08-30T02:36:04;18.38;;;10.02;;
65174;SDS011;51761;42.126;24.752;2022-08-30T02:38:31;19.20;;;10.35;;
65174;SDS011;51761;42.126;24.752;2022-08-30T02:40:56;18.55;;;10.23;;
65174;SDS011;51761;42.126;24.752;2022-08-30T02:43:22;17.38;;;10.20;;
65174;SDS011;51761;42.126;24.752;2022-08-30T02:45:48;21.50;;;10.30;;
65174;SDS011;51761;42.126;24.752;2022-08-30T02:48:14;22.63;;;10.60;;
65174;SDS011;51761;42.126;24.752;2022-08-30T02:50:44;26.98;;;10.48;;
65174;SDS011;51761;42.126;24.752;2022-08-30T02:53:11;20.13;;;10.60;;
65174;SDS011;51761;42.126;24.752;2022-08-30T02:55:37;17.13;;;9.98;;
65174;SDS011;51761;42.126;24.752;2022-08-30T02:58:03;18.35;;;9.30;;
65174;SDS011;51761;42.126;24.752;2022-08-30T03:00:29;14.90;;;9.45;;
65174;SDS011;51761;42.126;24.752;2022-08-30T03:02:55;17.85;;;10.73;;
65174;SDS011;51761;42.126;24.752;2022-08-30T03:05:21;19.05;;;10.25;;
65174;SDS011;51761;42.126;24.752;2022-08-30T03:07:47;14.82;;;10.45;;
65174;SDS011;51761;42.126;24.752;2022-08-30T03:10:13;19.83;;;10.30;;
65174;SDS011;51761;42.126;24.752;2022-08-30T03:12:39;13.88;;;9.95;;
65174;SDS011;51761;42.126;24.752;2022-08-30T03:15:06;19.42;;;9.18;;
65174;SDS011;51761;42.126;24.752;2022-08-30T03:17:32;13.23;;;9.73;;
65174;SDS011;51761;42.126;24.752;2022-08-30T03:19:59;17.20;;;10.05;;
65174;SDS011;51761;42.126;24.752;2022-08-30T03:22:26;16.65;;;9.95;;
65174;SDS011;51761;42.126;24.752;2022-08-30T03:24:52;23.52;;;10.90;;
65174;SDS011;51761;42.126;24.752;2022-08-30T03:27:22;21.73;;;11.35;;
65174;SDS011;51761;42.126;24.752;2022-08-30T03:29:48;20.75;;;10.20;;
65174;SDS011;51761;42.126;24.752;2022-08-30T03:32:14;15.77;;;10.05;;
65174;SDS011;51761;42.126;24.752;2022-08-30T03:34:40;19.65;;;10.05;;
65174;SDS011;51761;42.126;24.752;2022-08-30T03:37:05;16.90;;;10.82;;
65174;SDS011;51761;42.126;24.752;2022-08-30T03:39:31;21.00;;;10.60;;
65174;SDS011;51761;42.126;24.752;2022-08-30T03:41:56;18.70;;;10.77;;
65174;SDS011;51761;42.126;24.752;2022-08-30T03:44:22;18.83;;;10.23;;
65174;SDS011;51761;42.126;24.752;2022-08-30T03:46:48;18.90;;;10.52;;
65174;SDS011;51761;42.126;24.752;2022-08-30T03:49:13;19.30;;;10.57;;
65174;SDS011;51761;42.126;24.752;2022-08-30T03:51:39;33.55;;;11.48;;
65174;SDS011;51761;42.126;24.752;2022-08-30T03:54:05;24.38;;;11.05;;
65174;SDS011;51761;42.126;24.752;2022-08-30T03:56:30;15.32;;;10.63;;
65174;SDS011;51761;42.126;24.752;2022-08-30T03:58:56;27.98;;;10.35;;
65174;SDS011;51761;42.126;24.752;2022-08-30T04:01:21;28.25;;;10.63;;
65174;SDS011;51761;42.126;24.752;2022-08-30T04:03:47;30.77;;;11.13;;
65174;SDS011;51761;42.126;24.752;2022-08-30T04:06:12;21.60;;;11.43;;
65174;SDS011;51761;42.126;24.752;2022-08-30T04:08:38;19.63;;;11.18;;
65174;SDS011;51761;42.126;24.752;2022-08-30T04:11:04;18.08;;;10.43;;
65174;SDS011;51761;42.126;24.752;2022-08-30T04:13:31;31.13;;;10.77;;
65174;SDS011;51761;42.126;24.752;2022-08-30T04:15:57;20.08;;;10.43;;
65174;SDS011;51761;42.126;24.752;2022-08-30T04:18:23;20.83;;;10.50;;
65174;SDS011;51761;42.126;24.752;2022-08-30T04:20:49;18.00;;;10.93;;
65174;SDS011;51761;42.126;24.752;2022-08-30T04:23:16;16.13;;;11.20;;
65174;SDS011;51761;42.126;24.752;2022-08-30T04:25:42;29.27;;;12.20;;
65174;SDS011;51761;42.126;24.752;2022-08-30T04:28:08;29.98;;;13.45;;
65174;SDS011;51761;42.126;24.752;2022-08-30T04:30:37;35.08;;;16.48;;
65174;SDS011;51761;42.126;24.752;2022-08-30T04:33:04;26.40;;;15.40;;
65174;SDS011;51761;42.126;24.752;2022-08-30T04:35:29;26.92;;;11.48;;
65174;SDS011;51761;42.126;24.752;2022-08-30T04:37:55;30.83;;;12.95;;
65174;SDS011;51761;42.126;24.752;2022-08-30T04:40:20;17.27;;;11.25;;
65174;SDS011;51761;42.126;24.752;2022-08-30T04:42:47;18.55;;;11.43;;
65174;SDS011;51761;42.126;24.752;2022-08-30T04:45:13;39.58;;;24.95;;
65174;SDS011;51761;42.126;24.752;2022-08-30T04:47:43;24.63;;;11.60;;
65174;SDS011;51761;42.126;24.752;2022-08-30T04:50:10;20.90;;;11.27;;
65174;SDS011;51761;42.126;24.752;2022-08-30T04:52:37;24.42;;;11.05;;
65174;SDS011;51761;42.126;24.752;2022-08-30T04:55:03;37.38;;;13.00;;
65174;SDS011;51761;42.126;24.752;2022-08-30T04:57:29;25.85;;;10.95;;
65174;SDS011;51761;42.126;24.752;2022-08-30T04:59:55;24.80;;;11.60;;
65174;SDS011;51761;42.126;24.752;2022-08-30T05:02:21;21.38;;;10.65;;
65174;SDS011;51761;42.126;24.752;2022-08-30T05:04:47;27.73;;;13.20;;
65174;SDS011;51761;42.126;24.752;2022-08-30T05:07:31;13.05;;;10.85;;
65174;SDS011;51761;42.126;24.752;2022-08-30T05:09:57;15.77;;;10.80;;
65174;SDS011;51761;42.126;24.752;2022-08-30T05:12:23;17.00;;;10.40;;
65174;SDS011;51761;42.126;24.752;2022-08-30T05:14:49;23.33;;;11.07;;
65174;SDS011;51761;42.126;24.752;2022-08-30T05:17:15;19.67;;;9.80;;
65174;SDS011;51761;42.126;24.752;2022-08-30T05:19:40;20.02;;;10.80;;
65174;SDS011;51761;42.126;24.752;2022-08-30T05:22:06;17.15;;;10.23;;
65174;SDS011;51761;42.126;24.752;2022-08-30T05:24:32;24.63;;;10.48;;
65174;SDS011;51761;42.126;24.752;2022-08-30T05:26:58;24.27;;;9.85;;
65174;SDS011;51761;42.126;24.752;2022-08-30T05:29:24;19.02;;;10.38;;
65174;SDS011;51761;42.126;24.752;2022-08-30T05:31:49;30.42;;;12.98;;
65174;SDS011;51761;42.126;24.752;2022-08-30T05:34:15;21.05;;;10.50;;
65174;SDS011;51761;42.126;24.752;2022-08-30T05:36:40;22.98;;;10.68;;
65174;SDS011;51761;42.126;24.752;2022-08-30T05:39:07;19.60;;;9.40;;
65174;SDS011;51761;42.126;24.752;2022-08-30T05:41:34;21.52;;;9.60;;
65174;SDS011;51761;42.126;24.752;2022-08-30T05:44:02;25.88;;;9.43;;
65174;SDS011;51761;42.126;24.752;2022-08-30T05:46:29;15.23;;;9.52;;
65174;SDS011;51761;42.126;24.752;2022-08-30T05:48:59;12.73;;;9.25;;
65174;SDS011;51761;42.126;24.752;2022-08-30T05:51:26;21.00;;;10.30;;
65174;SDS011;51761;42.126;24.752;2022-08-30T05:53:53;17.90;;;9.43;;
65174;SDS011;51761;42.126;24.752;2022-08-30T05:56:21;17.17;;;8.93;;
65174;SDS011;51761;42.126;24.752;2022-08-30T05:58:52;17.65;;;9.55;;
65174;SDS011;51761;42.126;24.752;2022-08-30T06:01:30;18.55;;;9.50;;
65174;SDS011;51761;42.126;24.752;2022-08-30T06:03:59;15.30;;;8.48;;
65174;SDS011;51761;42.126;24.752;2022-08-30T06:06:27;13.80;;;8.50;;
65174;SDS011;51761;42.126;24.752;2022-08-30T06:08:54;20.70;;;8.55;;
65174;SDS011;51761;42.126;24.752;2022-08-30T06:11:21;29.63;;;13.18;;
65174;SDS011;51761;42.126;24.752;2022-08-30T06:13:48;18.75;;;8.90;;
65174;SDS011;51761;42.126;24.752;2022-08-30T06:16:16;22.35;;;8.85;;
65174;SDS011;51761;42.126;24.752;2022-08-30T06:18:44;16.60;;;8.55;;
65174;SDS011;51761;42.126;24.752;2022-08-30T06:21:16;21.25;;;8.25;;
65174;SDS011;51761;42.126;24.752;2022-08-30T06:23:47;19.13;;;8.35;;
65174;SDS011;51761;42.126;24.752;2022-08-30T06:26:13;17.30;;;8.15;;
65174;SDS011;51761;42.126;24.752;2022-08-30T06:28:39;23.35;;;8.15;;
65174;SDS011;51761;42.126;24.752;2022-08-30T06:31:05;16.23;;;8.73;;
65174;SDS011;51761;42.126;24.752;2022-08-30T06:33:31;15.45;;;7.78;;
65174;SDS011;51761;42.126;24.752;2022-08-30T06:36:01;24.08;;;7.88;;
65174;SDS011;51761;42.126;24.752;2022-08-30T06:38:31;20.92;;;9.73;;
65174;SDS011;51761;42.126;24.752;2022-08-30T06:40:56;16.33;;;7.95;;
65174;SDS011;51761;42.126;24.752;2022-08-30T06:43:22;15.88;;;9.02;;
65174;SDS011;51761;42.126;24.752;2022-08-30T06:45:47;31.33;;;8.32;;
65174;SDS011;51761;42.126;24.752;2022-08-30T06:48:13;22.75;;;9.32;;
65174;SDS011;51761;42.126;24.752;2022-08-30T06:50:38;26.23;;;7.90;;
65174;SDS011;51761;42.126;24.752;2022-08-30T06:53:06;18.90;;;8.10;;
65174;SDS011;51761;42.126;24.752;2022-08-30T06:55:32;23.05;;;8.05;;
65174;SDS011;51761;42.126;24.752;2022-08-30T06:58:00;15.00;;;7.07;;
65174;SDS011;51761;42.126;24.752;2022-08-30T07:00:27;15.18;;;7.47;;
65174;SDS011;51761;42.126;24.752;2022-08-30T07:02:52;23.60;;;8.15;;
65174;SDS011;51761;42.126;24.752;2022-08-30T07:05:18;13.00;;;7.50;;
65174;SDS011;51761;42.126;24.752;2022-08-30T07:07:47;17.45;;;7.40;;
65174;SDS011;51761;42.126;24.752;2022-08-30T07:10:13;21.60;;;8.20;;
65174;SDS011;51761;42.126;24.752;2022-08-30T07:12:39;16.92;;;8.18;;
65174;SDS011;51761;42.126;24.752;2022-08-30T07:15:05;16.92;;;8.68;;
65174;SDS011;51761;42.126;24.752;2022-08-30T07:17:32;20.17;;;8.05;;
65174;SDS011;51761;42.126;24.752;2022-08-30T07:20:17;17.00;;;7.45;;
65174;SDS011;51761;42.126;24.752;2022-08-30T07:22:44;14.13;;;8.00;;
65174;SDS011;51761;42.126;24.752;2022-08-30T07:25:10;19.30;;;8.07;;
65174;SDS011;51761;42.126;24.752;2022-08-30T07:27:36;11.60;;;7.03;;
65174;SDS011;51761;42.126;24.752;2022-08-30T07:30:03;14.95;;;6.65;;
65174;SDS011;51761;42.126;24.752;2022-08-30T07:32:30;14.93;;;6.90;;
65174;SDS011;51761;42.126;24.752;2022-08-30T07:34:55;24.42;;;7.05;;
65174;SDS011;51761;42.126;24.752;2022-08-30T07:37:21;18.23;;;7.13;;
65174;SDS011;51761;42.126;24.752;2022-08-30T07:39:47;22.10;;;7.60;;
65174;SDS011;51761;42.126;24.752;2022-08-30T07:42:13;20.40;;;7.93;;
65174;SDS011;51761;42.126;24.752;2022-08-30T07:44:39;20.95;;;8.02;;
65174;SDS011;51761;42.126;24.752;2022-08-30T07:47:04;15.35;;;6.85;;
65174;SDS011;51761;42.126;24.752;2022-08-30T07:49:30;15.85;;;8.23;;
65174;SDS011;51761;42.126;24.752;2022-08-30T07:51:55;17.25;;;7.60;;
65174;SDS011;51761;42.126;24.752;2022-08-30T07:54:21;20.23;;;10.15;;
65174;SDS011;51761;42.126;24.752;2022-08-30T07:56:46;17.83;;;7.32;;
65174;SDS011;51761;42.126;24.752;2022-08-30T07:59:13;15.52;;;6.88;;
65174;SDS011;51761;42.126;24.752;2022-08-30T08:01:38;14.30;;;7.30;;
65174;SDS011;51761;42.126;24.752;2022-08-30T08:04:04;15.32;;;7.00;;
65174;SDS011;51761;42.126;24.752;2022-08-30T08:06:30;12.10;;;6.55;;
65174;SDS011;51761;42.126;24.752;2022-08-30T08:08:56;17.02;;;6.88;;
65174;SDS011;51761;42.126;24.752;2022-08-30T08:11:26;19.88;;;10.50;;
65174;SDS011;51761;42.126;24.752;2022-08-30T08:13:52;15.40;;;7.72;;
65174;SDS011;51761;42.126;24.752;2022-08-30T08:16:18;15.80;;;8.55;;
65174;SDS011;51761;42.126;24.752;2022-08-30T08:18:46;14.38;;;7.65;;
65174;SDS011;51761;42.126;24.752;2022-08-30T08:21:11;17.17;;;7.88;;
65174;SDS011;51761;42.126;24.752;2022-08-30T08:23:37;20.50;;;7.68;;
65174;SDS011;51761;42.126;24.752;2022-08-30T08:26:02;11.05;;;7.38;;
65174;SDS011;51761;42.126;24.752;2022-08-30T08:28:28;16.63;;;7.28;;
65174;SDS011;51761;42.126;24.752;2022-08-30T08:30:54;26.95;;;8.25;;
65174;SDS011;51761;42.126;24.752;2022-08-30T08:33:21;16.77;;;7.93;;
65174;SDS011;51761;42.126;24.752;2022-08-30T08:35:48;17.42;;;8.50;;
65174;SDS011;51761;42.126;24.752;2022-08-30T08:38:13;20.08;;;7.88;;
65174;SDS011;51761;42.126;24.752;2022-08-30T08:40:48;17.85;;;7.30;;
65174;SDS011;51761;42.126;24.752;2022-08-30T08:43:27;19.30;;;6.93;;
65174;SDS011;51761;42.126;24.752;2022-08-30T08:46:12;13.23;;;6.95;;
65174;SDS011;51761;42.126;24.752;2022-08-30T08:48:44;14.80;;;7.25;;
65174;SDS011;51761;42.126;24.752;2022-08-30T08:51:16;17.05;;;7.25;;
65174;SDS011;51761;42.126;24.752;2022-08-30T08:54:04;20.77;;;8.75;;
65174;SDS011;51761;42.126;24.752;2022-08-30T08:56:34;28.60;;;9.80;;
65174;SDS011;51761;42.126;24.752;2022-08-30T08:59:01;18.48;;;8.35;;
65174;SDS011;51761;42.126;24.752;2022-08-30T09:01:28;18.55;;;7.82;;
65174;SDS011;51761;42.126;24.752;2022-08-30T09:03:55;20.00;;;7.88;;
65174;SDS011;51761;42.126;24.752;2022-08-30T09:06:44;19.05;;;7.32;;
65174;SDS011;51761;42.126;24.752;2022-08-30T09:09:26;18.63;;;7.85;;
65174;SDS011;51761;42.126;24.752;2022-08-30T09:11:55;16.92;;;6.95;;
65174;SDS011;51761;42.126;24.752;2022-08-30T09:14:22;13.57;;;6.70;;
65174;SDS011;51761;42.126;24.752;2022-08-30T09:27:30;13.07;;;6.90;;
65174;SDS011;51761;42.126;24.752;2022-08-30T09:30:00;10.20;;;6.40;;
65174;SDS011;51761;42.126;24.752;2022-08-30T09:32:30;18.65;;;7.40;;
65174;SDS011;51761;42.126;24.752;2022-08-30T09:34:59;17.92;;;6.40;;
65174;SDS011;51761;42.126;24.752;2022-08-30T09:37:31;15.18;;;8.10;;
65174;SDS011;51761;42.126;24.752;2022-08-30T09:40:00;15.77;;;6.97;;
65174;SDS011;51761;42.126;24.752;2022-08-30T09:42:33;16.45;;;7.07;;
65174;SDS011;51761;42.126;24.752;2022-08-30T09:44:58;11.68;;;6.88;;
65174;SDS011;51761;42.126;24.752;2022-08-30T09:47:42;16.92;;;7.30;;
65174;SDS011;51761;42.126;24.752;2022-08-30T09:50:10;18.98;;;9.23;;
65174;SDS011;51761;42.126;24.752;2022-08-30T09:52:47;15.80;;;6.43;;
65174;SDS011;51761;42.126;24.752;2022-08-30T10:00:55;23.38;;;8.80;;
65174;SDS011;51761;42.126;24.752;2022-08-30T10:06:08;15.23;;;6.35;;
65174;SDS011;51761;42.126;24.752;2022-08-30T10:09:10;20.42;;;7.78;;
65174;SDS011;51761;42.126;24.752;2022-08-30T10:17:26;16.55;;;6.97;;
65174;SDS011;51761;42.126;24.752;2022-08-30T10:22:43;22.45;;;6.95;;
65174;SDS011;51761;42.126;24.752;2022-08-30T10:25:16;20.17;;;7.38;;
65174;SDS011;51761;42.126;24.752;2022-08-30T10:28:29;17.95;;;7.68;;
65174;SDS011;51761;42.126;24.752;2022-08-30T10:30:41;16.25;;;6.97;;
65174;SDS011;51761;42.126;24.752;2022-08-30T10:33:23;15.98;;;7.03;;
65174;SDS011;51761;42.126;24.752;2022-08-30T10:35:54;11.30;;;6.47;;
65174;SDS011;51761;42.126;24.752;2022-08-30T10:38:26;21.17;;;6.75;;
65174;SDS011;51761;42.126;24.752;2022-08-30T10:46:23;13.80;;;5.72;;
65174;SDS011;51761;42.126;24.752;2022-08-30T10:49:10;14.23;;;6.63;;
65174;SDS011;51761;42.126;24.752;2022-08-30T10:56:56;12.98;;;6.10;;
65174;SDS011;51761;42.126;24.752;2022-08-30T10:59:22;16.42;;;6.55;;
65174;SDS011;51761;42.126;24.752;2022-08-30T11:09:46;15.23;;;6.80;;
65174;SDS011;51761;42.126;24.752;2022-08-30T11:15:18;10.82;;;6.85;;
65174;SDS011;51761;42.126;24.752;2022-08-30T11:17:55;20.08;;;6.22;;
65174;SDS011;51761;42.126;24.752;2022-08-30T11:20:37;20.45;;;6.30;;
65174;SDS011;51761;42.126;24.752;2022-08-30T11:23:24;23.23;;;6.18;;
65174;SDS011;51761;42.126;24.752;2022-08-30T11:31:07;10.13;;;5.50;;
65174;SDS011;51761;42.126;24.752;2022-08-30T11:33:51;14.85;;;6.38;;
65174;SDS011;51761;42.126;24.752;2022-08-30T11:44:37;14.90;;;6.10;;
65174;SDS011;51761;42.126;24.752;2022-08-30T11:47:35;15.77;;;6.13;;
65174;SDS011;51761;42.126;24.752;2022-08-30T11:50:29;19.08;;;6.53;;
65174;SDS011;51761;42.126;24.752;2022-08-30T11:56:04;12.45;;;6.03;;
65174;SDS011;51761;42.126;24.752;2022-08-30T12:04:08;18.95;;;10.02;;
65174;SDS011;51761;42.126;24.752;2022-08-30T12:17:01;10.57;;;6.30;;
65174;SDS011;51761;42.126;24.752;2022-08-30T12:19:52;12.10;;;5.45;;
65174;SDS011;51761;42.126;24.752;2022-08-30T12:22:21;22.70;;;6.65;;
65174;SDS011;51761;42.126;24.752;2022-08-30T12:24:47;18.65;;;6.40;;
65174;SDS011;51761;42.126;24.752;2022-08-30T12:29:57;19.08;;;6.13;;
65174;SDS011;51761;42.126;24.752;2022-08-30T12:32:29;17.00;;;6.28;;
65174;SDS011;51761;42.126;24.752;2022-08-30T12:34:56;12.40;;;6.28;;
65174;SDS011;51761;42.126;24.752;2022-08-30T12:42:37;21.35;;;6.30;;
65174;SDS011;51761;42.126;24.752;2022-08-30T12:45:12;19.27;;;8.40;;
65174;SDS011;51761;42.126;24.752;2022-08-30T12:47:47;44.45;;;15.25;;
65174;SDS011;51761;42.126;24.752;2022-08-30T12:50:15;36.03;;;11.43;;
65174;SDS011;51761;42.126;24.752;2022-08-30T12:52:54;27.52;;;7.85;;
65174;SDS011;51761;42.126;24.752;2022-08-30T12:55:27;24.17;;;9.98;;
65174;SDS011;51761;42.126;24.752;2022-08-30T13:02:52;23.27;;;7.78;;
65174;SDS011;51761;42.126;24.752;2022-08-30T13:05:53;16.42;;;6.90;;
65174;SDS011;51761;42.126;24.752;2022-08-30T13:10:50;19.38;;;5.35;;
65174;SDS011;51761;42.126;24.752;2022-08-30T13:18:36;16.65;;;8.40;;
65174;SDS011;51761;42.126;24.752;2022-08-30T13:24:04;18.88;;;8.50;;
65174;SDS011;51761;42.126;24.752;2022-08-30T13:26:36;14.88;;;5.30;;
65174;SDS011;51761;42.126;24.752;2022-08-30T13:29:05;15.10;;;6.10;;
65174;SDS011;51761;42.126;24.752;2022-08-30T13:31:32;18.85;;;6.40;;
65174;SDS011;51761;42.126;24.752;2022-08-30T13:34:00;11.82;;;6.70;;
65174;SDS011;51761;42.126;24.752;2022-08-30T13:36:30;21.92;;;5.35;;
65174;SDS011;51761;42.126;24.752;2022-08-30T13:38:58;15.35;;;4.88;;
65174;SDS011;51761;42.126;24.752;2022-08-30T13:41:25;12.23;;;4.57;;
65174;SDS011;51761;42.126;24.752;2022-08-30T13:43:51;14.60;;;5.00;;
65174;SDS011;51761;42.126;24.752;2022-08-30T13:46:17;9.77;;;4.63;;
65174;SDS011;51761;42.126;24.752;2022-08-30T13:48:44;12.95;;;5.20;;
65174;SDS011;51761;42.126;24.752;2022-08-30T13:51:09;12.45;;;5.10;;
65174;SDS011;51761;42.126;24.752;2022-08-30T13:53:35;20.30;;;6.82;;
65174;SDS011;51761;42.126;24.752;2022-08-30T13:56:02;12.07;;;5.80;;
65174;SDS011;51761;42.126;24.752;2022-08-30T13:58:29;18.30;;;6.88;;
65174;SDS011;51761;42.126;24.752;2022-08-30T14:00:56;15.82;;;7.68;;
65174;SDS011;51761;42.126;24.752;2022-08-30T14:03:22;17.30;;;6.15;;
65174;SDS011;51761;42.126;24.752;2022-08-30T14:05:48;25.08;;;13.13;;
65174;SDS011;51761;42.126;24.752;2022-08-30T14:08:14;21.83;;;14.27;;
65174;SDS011;51761;42.126;24.752;2022-08-30T14:10:42;29.85;;;16.00;;
65174;SDS011;51761;42.126;24.752;2022-08-30T14:13:07;13.98;;;7.22;;
65174;SDS011;51761;42.126;24.752;2022-08-30T14:15:36;12.00;;;5.65;;
65174;SDS011;51761;42.126;24.752;2022-08-30T14:18:03;17.42;;;5.85;;
65174;SDS011;51761;42.126;24.752;2022-08-30T14:20:30;13.13;;;5.22;;
65174;SDS011;51761;42.126;24.752;2022-08-30T14:22:56;11.55;;;5.93;;
65174;SDS011;51761;42.126;24.752;2022-08-30T14:25:21;18.90;;;6.10;;
65174;SDS011;51761;42.126;24.752;2022-08-30T14:27:47;14.95;;;6.07;;
65174;SDS011;51761;42.126;24.752;2022-08-30T14:30:12;15.25;;;8.35;;
65174;SDS011;51761;42.126;24.752;2022-08-30T14:32:38;23.17;;;6.40;;
65174;SDS011;51761;42.126;24.752;2022-08-30T14:35:04;15.55;;;6.20;;
65174;SDS011;51761;42.126;24.752;2022-08-30T14:37:30;23.70;;;7.80;;
65174;SDS011;51761;42.126;24.752;2022-08-30T14:39:55;11.52;;;6.88;;
65174;SDS011;51761;42.126;24.752;2022-08-30T14:42:21;17.02;;;6.18;;
65174;SDS011;51761;42.126;24.752;2022-08-30T14:44:46;14.93;;;6.78;;
65174;SDS011;51761;42.126;24.752;2022-08-30T14:47:15;25.20;;;10.15;;
65174;SDS011;51761;42.126;24.752;2022-08-30T14:49:40;29.90;;;11.93;;
65174;SDS011;51761;42.126;24.752;2022-08-30T14:52:06;16.65;;;7.03;;
65174;SDS011;51761;42.126;24.752;2022-08-30T14:54:31;16.70;;;7.20;;
65174;SDS011;51761;42.126;24.752;2022-08-30T14:56:58;21.48;;;6.90;;
65174;SDS011;51761;42.126;24.752;2022-08-30T14:59:24;14.23;;;6.65;;
65174;SDS011;51761;42.126;24.752;2022-08-30T15:01:50;12.30;;;6.50;;
65174;SDS011;51761;42.126;24.752;2022-08-30T15:04:16;15.38;;;7.32;;
65174;SDS011;51761;42.126;24.752;2022-08-30T15:06:43;14.68;;;6.90;;
65174;SDS011;51761;42.126;24.752;2022-08-30T15:09:11;13.02;;;6.20;;
65174;SDS011;51761;42.126;24.752;2022-08-30T15:11:39;18.15;;;7.75;;
65174;SDS011;51761;42.126;24.752;2022-08-30T15:14:07;17.52;;;7.57;;
65174;SDS011;51761;42.126;24.752;2022-08-30T15:16:34;12.70;;;5.80;;
65174;SDS011;51761;42.126;24.752;2022-08-30T15:19:01;17.77;;;6.57;;
65174;SDS011;51761;42.126;24.752;2022-08-30T15:21:33;14.55;;;5.97;;
65174;SDS011;51761;42.126;24.752;2022-08-30T15:24:04;11.65;;;6.13;;
65174;SDS011;51761;42.126;24.752;2022-08-30T15:26:31;12.35;;;5.75;;
65174;SDS011;51761;42.126;24.752;2022-08-30T15:28:56;15.95;;;5.85;;
65174;SDS011;51761;42.126;24.752;2022-08-30T15:31:23;17.38;;;8.63;;
65174;SDS011;51761;42.126;24.752;2022-08-30T15:33:52;21.50;;;7.78;;
65174;SDS011;51761;42.126;24.752;2022-08-30T15:36:18;11.95;;;6.07;;
65174;SDS011;51761;42.126;24.752;2022-08-30T15:38:43;14.93;;;6.78;;
65174;SDS011;51761;42.126;24.752;2022-08-30T15:41:09;26.08;;;6.53;;
65174;SDS011;51761;42.126;24.752;2022-08-30T15:43:36;18.52;;;7.03;;
65174;SDS011;51761;42.126;24.752;2022-08-30T15:46:15;15.38;;;6.25;;
65174;SDS011;51761;42.126;24.752;2022-08-30T15:48:52;13.70;;;6.05;;
65174;SDS011;51761;42.126;24.752;2022-08-30T15:51:20;19.35;;;7.05;;
65174;SDS011;51761;42.126;24.752;2022-08-30T15:53:46;20.25;;;8.93;;
65174;SDS011;51761;42.126;24.752;2022-08-30T15:56:13;11.90;;;7.40;;
65174;SDS011;51761;42.126;24.752;2022-08-30T15:58:39;18.08;;;8.02;;
65174;SDS011;51761;42.126;24.752;2022-08-30T16:01:05;22.85;;;10.18;;
65174;SDS011;51761;42.126;24.752;2022-08-30T16:03:32;15.00;;;7.40;;
65174;SDS011;51761;42.126;24.752;2022-08-30T16:05:58;17.98;;;6.97;;
65174;SDS011;51761;42.126;24.752;2022-08-30T16:08:24;14.05;;;8.32;;
65174;SDS011;51761;42.126;24.752;2022-08-30T16:10:50;13.90;;;6.25;;
65174;SDS011;51761;42.126;24.752;2022-08-30T16:13:15;17.90;;;8.73;;